Avon, Illinois
Current Conditions -  °F | °C
As of 12:55 AM on Thursday 27 Nov 2014 (Local Time) from KMQB Reporting Station
Haze Haze  
Wind Chill: 11°   Ceiling: 1500
Heat Index: 20°   Visibility: 5mi
Dew Point: 19°   Wind: 7mph
Humidity: 96%   Direction: 290°WNW
Pressure: 30.32"   Gusts: NA
Location:  40.66°N, 90.43°W
Report Text: KMQB 270655Z AUTO 29006KT 5SM BR OVC015 M06/M07 A3032 RMK AO2 T10651071
Loading
Personal Weather Stations






























Interactive Weather Map New forecast layout! Learn more

10-Day Weather Forecast

Advertisements
Track Severe Weather on mobile